Time;durP1;ratioP1;P1;durP2;ratioP2;P2;SDS_P1;SDS_P2;PMS_P1;PMS_P2;Temp;Humidity;BMP_temperature;BMP_pressure;BME280_temperature;BME280_humidity;BME280_pressure;Samples;Min_cycle;Max_cycle;Signal;HPM_P1;HPM_P2
2022/09/19 00:03:56;;;;;;;1.03;0.30;;;13.30;92.90;;;11.51;66.94;99599.09;10270558;28;96659;-89
2022/09/19 00:08:59;;;;;;;1.87;0.50;;;13.20;93.60;;;11.36;68.44;99592.16;10273198;28;96915;-91
2022/09/19 00:14:02;;;;;;;0.47;0.30;;;13.00;94.10;;;11.14;70.24;99593.94;10317649;28;98370;-90
2022/09/19 00:19:07;;;;;;;0.77;0.30;;;12.80;95.40;;;10.90;71.66;99584.44;10278030;28;98062;-91
2022/09/19 00:29:43;;;;;;;0.43;0.17;;;12.40;96.40;;;10.59;73.47;99588.09;10288010;28;96483;-93
2022/09/19 00:34:49;;;;;;;0.10;0.10;;;12.30;97.30;;;10.48;74.63;99569.13;10300779;28;98320;-92
2022/09/19 00:39:52;;;;;;;0.77;0.30;;;12.10;97.80;;;10.39;75.17;99565.75;10268659;28;96650;-90
2022/09/19 00:45:00;;;;;;;0.50;0.10;;;12.10;97.80;;;10.35;75.64;99561.78;10284734;28;96610;-91
2022/09/19 00:50:12;;;;;;;0.57;0.20;;;12.00;98.20;;;10.32;75.88;99546.25;10276613;28;97362;-90
2022/09/19 00:55:16;;;;;;;0.37;0.13;;;12.00;98.60;;;10.30;76.20;99548.22;10300425;28;97023;-90
2022/09/19 01:00:19;;;;;;;0.43;0.10;;;12.00;98.50;;;10.30;76.76;99548.22;10295284;28;97940;-90
2022/09/19 01:05:35;;;;;;;0.30;0.13;;;12.00;99.10;;;10.26;77.08;99558.41;10295654;28;98406;-91
2022/09/19 01:11:19;;;;;;;1.50;0.20;;;12.00;99.00;;;10.29;76.56;99552.72;10283400;28;100389;-92
2022/09/19 01:16:42;;;;;;;0.20;0.10;;;12.00;98.70;;;10.37;76.09;99549.16;10265902;28;98433;-93
2022/09/19 01:22:05;;;;;;;0.40;0.10;;;12.10;98.50;;;10.47;75.11;99551.56;10289374;28;97051;-93
2022/09/19 01:27:38;;;;;;;0.17;0.10;;;12.20;98.30;;;10.51;74.96;99544.88;10287744;28;96583;-91
2022/09/19 01:33:06;;;;;;;0.13;0.10;;;12.20;98.10;;;10.53;74.76;99537.53;10269600;28;96650;-92
2022/09/19 01:38:35;;;;;;;0.20;0.10;;;12.30;98.00;;;10.53;74.56;99540.19;10286059;28;96742;-91
2022/09/19 01:43:37;;;;;;;0.73;0.20;;;12.30;97.90;;;10.56;74.12;99540.66;10291679;28;98487;-90
2022/09/19 01:48:54;;;;;;;0.10;0.10;;;12.30;97.70;;;10.62;73.77;99544.41;10304928;28;97088;-91
2022/09/19 01:54:26;;;;;;;0.10;0.10;;;12.30;97.30;;;10.69;73.31;99555.94;10291127;28;96707;-90
2022/09/19 02:00:06;;;;;;;0.30;0.10;;;12.40;97.30;;;10.76;72.30;99553.38;10264810;28;96622;-89
2022/09/19 02:05:27;;;;;;;0.10;0.10;;;12.40;96.40;;;10.79;71.43;99555.66;10281644;28;96859;-90
2022/09/19 02:10:40;;;;;;;0.20;0.10;;;12.50;96.10;;;10.88;70.56;99544.75;10275643;28;97701;-91
2022/09/19 02:15:49;;;;;;;0.30;0.30;;;12.50;95.40;;;10.94;69.43;99561.78;10277650;28;96783;-90
2022/09/19 02:21:03;;;;;;;0.23;0.10;;;12.60;95.30;;;11.01;68.68;99562.69;10310693;28;96736;-90
2022/09/19 02:26:09;;;;;;;0.37;0.20;;;12.70;94.80;;;11.09;66.67;99561.75;10252966;28;96632;-87
2022/09/19 02:31:12;;;;;;;0.23;0.17;;;12.70;93.20;;;11.20;65.62;99582.53;10288857;28;97364;-88
2022/09/19 02:36:30;;;;;;;0.30;0.20;;;12.80;93.20;;;11.21;66.00;99585.00;10291893;28;96741;-88
2022/09/19 02:41:52;;;;;;;0.40;0.10;;;12.80;93.60;;;11.08;67.36;99584.03;10290594;28;96645;-91
2022/09/19 02:47:20;;;;;;;0.20;0.10;;;12.70;94.50;;;10.86;68.90;99562.72;10286152;28;98028;-90
2022/09/19 02:52:33;;;;;;;0.20;0.20;;;12.50;95.60;;;10.68;70.62;99562.28;10315634;28;96775;-91
2022/09/19 02:57:37;;;;;;;0.30;0.17;;;12.30;96.20;;;10.52;71.75;99562.44;10289929;28;96658;-90
2022/09/19 03:02:47;;;;;;;0.53;0.20;;;12.20;96.60;;;10.36;73.57;99558.13;10287592;28;97598;-90
2022/09/19 03:08:08;;;;;;;0.37;0.20;;;12.00;97.40;;;10.21;74.75;99563.41;10299504;28;98713;-90
2022/09/19 03:13:11;;;;;;;;;;;11.90;97.80;;;10.11;75.34;99550.38;10292763;28;98590;-89
2022/09/19 03:18:17;;;;;;;0.23;0.20;;;11.80;98.60;;;10.01;76.08;99541.00;10317251;28;96648;-89
2022/09/19 03:23:45;;;;;;;0.87;0.33;;;11.70;99.40;;;9.93;77.10;99548.06;10276819;28;97538;-88
2022/09/19 03:28:48;;;;;;;0.40;0.30;;;11.70;99.00;;;9.86;77.61;99541.00;10283890;28;97955;-91
2022/09/19 03:33:54;;;;;;;0.30;0.20;;;11.60;99.10;;;9.79;78.09;99543.53;10299072;28;96505;-90
2022/09/19 03:39:01;;;;;;;0.40;0.27;;;11.50;99.30;;;9.71;78.91;99538.28;10281601;28;96622;-90
2022/09/19 03:44:05;;;;;;;0.40;0.10;;;11.50;99.20;;;9.70;79.47;99546.44;10271339;28;98305;-92
2022/09/19 03:49:11;;;;;;;0.77;0.40;;;11.50;99.50;;;9.69;79.85;99553.56;10290275;28;96888;-93
2022/09/19 03:54:14;;;;;;;0.67;0.30;;;11.50;99.80;;;9.68;80.39;99564.34;10271062;28;96610;-90
2022/09/19 03:59:17;;;;;;;0.47;0.23;;;11.50;99.90;;;9.64;80.61;99569.19;10275718;28;96464;-89
2022/09/19 04:04:21;;;;;;;0.63;0.50;;;11.40;99.90;;;9.62;81.08;99581.81;10286652;28;98311;-83
2022/09/19 04:09:25;;;;;;;0.27;0.20;;;11.40;99.90;;;9.60;81.35;99578.53;10286294;28;97466;-85
2022/09/19 04:14:29;;;;;;;0.30;0.30;;;11.40;99.90;;;9.55;81.51;99570.25;10292499;28;96581;-84
2022/09/19 04:19:33;;;;;;;1.23;0.53;;;11.30;99.90;;;9.54;82.09;99589.84;10270631;28;97529;-85
2022/09/19 04:24:38;;;;;;;1.63;0.43;;;11.30;99.90;;;9.50;82.46;99592.00;10311147;28;97287;-84
2022/09/19 04:29:41;;;;;;;0.60;0.30;;;11.30;99.90;;;9.47;82.96;99604.78;10290763;28;96394;-84
2022/09/19 04:34:47;;;;;;;1.00;0.20;;;11.30;99.90;;;9.45;83.40;99601.47;10277183;28;98294;-84
2022/09/19 04:39:49;;;;;;;0.20;0.20;;;11.30;99.90;;;9.43;83.67;99596.34;10258444;28;96783;-84
2022/09/19 04:44:53;;;;;;;0.50;0.20;;;11.30;99.90;;;9.45;83.91;99610.25;10301962;28;96547;-84
2022/09/19 04:49:56;;;;;;;0.47;0.27;;;11.30;99.90;;;9.46;84.16;99611.91;10289883;28;96608;-86
2022/09/19 04:55:03;;;;;;;0.63;0.40;;;11.30;99.90;;;9.44;84.79;99613.91;10291010;28;97685;-85
2022/09/19 05:00:07;;;;;;;2.03;0.50;;;11.30;99.90;;;9.46;84.94;99613.72;10290354;28;96637;-86
2022/09/19 05:05:10;;;;;;;1.90;0.70;;;11.20;99.90;;;9.45;85.17;99622.69;10280403;28;96503;-87
2022/09/19 05:10:12;;;;;;;0.63;0.40;;;11.20;99.90;;;9.42;85.30;99634.50;10295711;28;96692;-87
2022/09/19 05:15:15;;;;;;;1.50;0.53;;;11.20;99.90;;;9.37;85.83;99639.47;10267931;28;98282;-85
2022/09/19 05:20:20;;;;;;;1.33;0.60;;;11.20;99.90;;;9.32;86.20;99640.00;10280100;28;96563;-86
2022/09/19 05:25:23;;;;;;;1.37;0.50;;;11.20;99.90;;;9.25;86.55;99641.69;10262408;28;96788;-87
2022/09/19 05:30:26;;;;;;;1.60;0.57;;;11.10;99.90;;;9.23;87.04;99648.97;10301579;28;97932;-87
2022/09/19 05:35:30;;;;;;;1.77;0.63;;;11.00;99.90;;;9.18;87.76;99654.00;10296061;28;96654;-87
2022/09/19 05:40:33;;;;;;;0.47;0.40;;;11.00;99.90;;;9.16;88.22;99644.53;10285826;28;96571;-87
2022/09/19 05:45:37;;;;;;;0.30;0.20;;;10.90;99.90;;;9.10;88.89;99652.19;10284281;28;98045;-90
2022/09/19 05:50:43;;;;;;;10.03;0.50;;;10.90;99.90;;;9.05;89.06;99653.69;10279417;28;96631;-89
2022/09/19 05:55:47;;;;;;;1.00;0.40;;;10.80;99.90;;;9.00;89.58;99654.22;10309681;28;97121;-87
2022/09/19 06:00:50;;;;;;;0.40;0.33;;;10.70;99.90;;;9.00;90.15;99662.19;10274268;28;97088;-88
2022/09/19 06:05:53;;;;;;;1.47;0.50;;;10.70;99.90;;;8.95;90.33;99663.69;10284372;28;97276;-89
2022/09/19 06:11:00;;;;;;;0.67;0.20;;;10.70;99.90;;;8.85;90.94;99646.13;10287691;28;96772;-88
2022/09/19 06:16:03;;;;;;;0.10;0.10;;;10.60;99.90;;;8.84;91.24;99660.38;10303227;28;96643;-85
2022/09/19 06:21:06;;;;;;;0.60;0.30;;;10.60;99.90;;;8.84;91.68;99656.91;10311165;28;96597;-86
2022/09/19 06:26:11;;;;;;;1.33;0.40;;;10.60;99.90;;;8.88;92.07;99646.81;10294110;28;96736;-85
2022/09/19 06:31:15;;;;;;;0.60;0.30;;;10.60;99.90;;;8.91;92.26;99630.56;10294361;28;96704;-85
2022/09/19 06:36:18;;;;;;;0.30;0.20;;;10.60;99.90;;;8.95;92.60;99634.53;10287107;28;97213;-89
2022/09/19 06:41:21;;;;;;;0.53;0.30;;;10.70;99.90;;;9.01;92.81;99650.56;10292078;28;96686;-90
2022/09/19 06:46:24;;;;;;;0.10;0.10;;;10.70;99.90;;;9.07;92.77;99659.66;10296590;28;96923;-86
2022/09/19 06:51:29;;;;;;;0.57;0.27;;;10.80;99.90;;;9.16;93.04;99655.16;10301505;28;96587;-85
2022/09/19 06:56:32;;;;;;;0.27;0.10;;;10.90;99.90;;;9.19;92.89;99668.91;10257394;28;96510;-88
2022/09/19 07:01:34;;;;;;;2.33;0.30;;;10.90;99.90;;;9.21;92.86;99671.38;10266362;28;96899;-87
2022/09/19 07:06:37;;;;;;;0.63;0.10;;;10.90;99.90;;;9.22;92.84;99668.53;10324277;28;96651;-87
2022/09/19 07:11:46;;;;;;;1.47;0.27;;;11.00;99.90;;;9.37;93.02;99679.25;10270712;28;96602;-87
2022/09/19 07:16:56;;;;;;;0.70;0.27;;;11.10;99.90;;;9.48;92.92;99681.53;10313424;28;98346;-87
2022/09/19 07:21:59;;;;;;;0.30;0.10;;;11.20;99.90;;;9.54;92.74;99680.84;10313292;28;96390;-88
2022/09/19 07:27:02;;;;;;;0.50;0.20;;;11.30;99.90;;;9.60;92.63;99687.28;10293225;28;98139;-86
2022/09/19 07:32:05;;;;;;;0.40;0.27;;;11.30;99.90;;;9.74;92.49;99697.13;10266918;28;97100;-88
2022/09/19 07:37:08;;;;;;;0.50;0.40;;;11.40;99.90;;;10.00;92.72;99690.66;10313978;28;96658;-88
2022/09/19 07:42:10;;;;;;;0.50;0.37;;;11.60;99.90;;;10.21;92.41;99692.69;10293575;28;97370;-90
2022/09/19 07:47:29;;;;;;;0.33;0.33;;;11.80;99.90;;;10.43;91.29;99706.00;10321608;28;97305;-87
2022/09/19 07:52:31;;;;;;;0.57;0.33;;;12.00;99.90;;;10.74;89.84;99701.56;10319377;28;96514;-92
2022/09/19 07:57:34;;;;;;;0.20;0.20;;;12.30;99.90;;;10.85;87.56;99704.56;10294184;28;96669;-93
2022/09/19 08:02:37;;;;;;;1.33;0.60;;;12.50;99.90;;;11.04;85.41;99702.44;10285126;28;97339;-91
2022/09/19 08:07:40;;;;;;;0.70;0.50;;;12.60;99.90;;;11.30;84.57;99708.09;10284264;28;96452;-91
2022/09/19 08:12:44;;;;;;;2.53;1.20;;;12.90;99.90;;;11.34;80.72;99716.53;10290179;28;96771;-92
2022/09/19 08:18:03;;;;;;;0.20;0.20;;;13.00;99.90;;;11.23;79.41;99723.16;10300125;28;96546;-92
2022/09/19 08:23:10;;;;;;;1.93;0.40;;;12.90;99.90;;;11.06;75.85;99721.66;10279322;28;96646;-93
2022/09/19 08:28:17;;;;;;;2.77;0.90;;;12.70;99.90;;;11.21;75.98;99725.16;10291872;28;98135;-94
2022/09/19 08:33:20;;;;;;;0.00;0.00;;;12.80;99.90;;;11.49;74.82;99726.16;10259567;28;96545;-94
2022/09/19 08:38:23;;;;;;;6.90;2.60;;;13.00;99.90;;;11.73;73.06;99735.66;10292897;28;96699;-95
2022/09/19 08:43:29;;;;;;;0.83;0.50;;;13.30;99.90;;;11.96;73.31;99735.53;10300210;28;96420;-94
2022/09/19 08:49:00;;;;;;;0.70;0.10;;;13.50;99.90;;;12.24;71.41;99734.81;10304167;28;98352;-89
2022/09/19 08:54:11;;;;;;;0.10;0.03;;;13.70;99.80;;;12.18;69.54;99732.91;10310001;28;96434;-94
2022/09/19 08:59:24;;;;;;;0.00;0.00;;;13.80;98.60;;;12.04;69.01;99740.75;10303643;28;97538;-95
2022/09/19 09:04:30;;;;;;;0.10;0.10;;;13.70;98.30;;;11.94;68.71;99747.41;10320717;28;97354;-95
2022/09/19 09:10:01;;;;;;;0.13;0.00;;;13.60;98.20;;;11.89;69.08;99757.78;10318584;28;97461;-93
2022/09/19 09:16:03;;;;;;;0.30;0.10;;;13.50;98.20;;;12.08;68.82;99759.03;10309241;28;96658;-93
2022/09/19 09:21:39;;;;;;;1.02;0.13;;;13.60;98.20;;;12.24;67.96;99769.44;10284941;28;96602;-93
2022/09/19 09:26:44;;;;;;;0.17;0.00;;;13.80;97.70;;;12.16;65.86;99766.88;10300759;28;96473;-94
2022/09/19 09:32:07;;;;;;;1.00;0.23;;;13.80;95.80;;;12.05;65.28;99771.72;10264962;28;96539;-92
2022/09/19 09:37:19;;;;;;;0.20;0.00;;;13.70;95.30;;;12.19;64.49;99771.84;10307140;28;97488;-95
2022/09/19 09:43:02;;;;;;;0.10;0.00;;;13.80;94.60;;;12.18;63.14;99786.19;10278410;28;96511;-96
2022/09/19 09:48:29;;;;;;;0.10;0.10;;;13.80;94.00;;;11.98;62.76;99785.94;10286418;28;98264;-96
2022/09/19 09:53:38;;;;;;;0.97;0.10;;;13.60;93.80;;;11.84;64.16;99784.16;10267062;28;96630;-95
2022/09/19 09:58:56;;;;;;;0.10;0.03;;;13.50;94.70;;;11.74;64.31;99795.03;10294996;28;96604;-94
2022/09/19 10:04:30;;;;;;;0.40;0.17;;;13.40;94.60;;;11.85;65.03;99783.13;10256528;28;96580;-92
2022/09/19 10:09:36;;;;;;;0.07;0.07;;;13.50;94.80;;;11.93;64.21;99785.69;10283306;28;96580;-95
2022/09/19 10:14:41;;;;;;;0.03;0.00;;;13.60;94.30;;;11.98;63.08;99781.44;10287335;28;96554;-90
2022/09/19 10:19:57;;;;;;;0.10;0.00;;;13.60;93.80;;;11.91;63.67;99777.88;10324025;28;98271;-95
2022/09/19 10:25:09;;;;;;;0.20;0.10;;;13.60;94.00;;;11.83;63.53;99795.81;10287773;28;96604;-92
2022/09/19 10:30:22;;;;;;;0.10;0.10;;;13.50;94.00;;;11.64;64.49;99786.53;10272381;28;96736;-95
2022/09/19 10:35:36;;;;;;;0.40;0.10;;;13.40;94.40;;;11.59;64.84;99789.75;10325680;28;96616;-96
2022/09/19 10:41:00;;;;;;;0.67;0.10;;;13.30;94.80;;;11.68;65.93;99790.47;10292742;28;96576;-92
2022/09/19 10:46:14;;;;;;;0.33;0.10;;;13.30;95.40;;;11.91;66.74;99782.38;10296601;28;96466;-93
2022/09/19 10:51:18;;;;;;;0.28;0.20;;;13.60;95.90;;;12.62;66.77;99769.19;10303704;28;96583;-90
2022/09/19 10:56:28;;;;;;;0.20;0.10;;;14.50;95.60;;;12.95;63.04;99762.28;10296941;28;97447;-95
2022/09/19 11:01:31;;;;;;;3.00;0.20;;;15.00;93.00;;;12.88;62.52;99800.59;10277335;28;97394;-93
2022/09/19 11:06:34;;;;;;;0.00;0.00;;;14.80;93.20;;;12.14;66.39;99820.34;10291713;28;96624;-90
2022/09/19 11:11:47;;;;;;;0.10;0.10;;;14.00;96.20;;;11.19;69.74;99830.88;10293548;28;96558;-92
2022/09/19 11:17:19;;;;;;;0.10;0.10;;;13.00;98.10;;;10.64;74.10;99824.88;10293933;28;96530;-89
2022/09/19 11:22:59;;;;;;;0.00;0.00;;;12.40;99.90;;;10.53;76.34;99829.75;10295297;28;96531;-91
2022/09/19 11:28:46;;;;;;;0.10;0.10;;;12.10;99.90;;;10.45;77.91;99822.69;10285439;28;96549;-92
2022/09/19 11:34:16;;;;;;;0.27;0.20;;;12.00;99.90;;;10.76;80.56;99819.97;10269523;28;96502;-86
2022/09/19 11:40:00;;;;;;;0.10;0.10;;;12.20;99.90;;;10.98;79.99;99839.56;10281158;28;96614;-91
2022/09/19 11:45:16;;;;;;;0.20;0.10;;;12.50;99.90;;;11.38;81.09;99843.66;10315624;28;96668;-88
2022/09/19 11:50:32;;;;;;;1.70;0.10;;;12.70;99.90;;;11.66;78.05;99827.09;10283708;28;96530;-89
2022/09/19 11:56:01;;;;;;;0.13;0.10;;;13.10;99.90;;;11.94;75.95;99809.47;10255567;28;96782;-92
2022/09/19 12:01:29;;;;;;;2.70;0.87;;;13.30;99.90;;;12.22;73.14;99827.41;10287154;28;97900;-96
2022/09/19 12:06:47;;;;;;;2.03;0.60;;;13.60;99.90;;;12.19;71.91;99825.13;10285007;28;96710;-95
2022/09/19 12:11:58;;;;;;;0.73;0.40;;;13.70;99.90;;;12.04;70.82;99833.13;10282474;28;96517;-94
2022/09/19 12:17:08;;;;;;;0.10;0.10;;;13.60;98.70;;;11.83;71.77;99846.41;10298148;28;96725;-92
2022/09/19 12:22:32;;;;;;;3.22;1.13;;;13.40;99.90;;;11.59;71.43;99837.63;10322326;28;96448;-90
2022/09/19 12:27:49;;;;;;;0.87;0.10;;;13.20;99.70;;;11.37;71.18;99839.34;10339973;28;96424;-93
2022/09/19 12:33:06;;;;;;;0.10;0.10;;;13.00;98.90;;;11.29;70.84;99836.78;10297044;28;96695;-93
2022/09/19 12:38:41;;;;;;;0.20;0.10;;;12.90;99.00;;;11.23;70.38;99835.69;10294074;28;96787;-94
2022/09/19 12:44:56;;;;;;;0.30;0.17;;;12.80;98.70;;;11.15;70.41;99840.22;10308146;28;96605;-94
2022/09/19 12:50:21;;;;;;;0.40;0.10;;;12.80;98.40;;;11.22;70.68;99847.31;10244341;28;96813;-94
2022/09/19 12:55:38;;;;;;;0.10;0.00;;;12.90;98.90;;;11.29;71.46;99847.44;10310398;28;96380;-95
2022/09/19 13:00:45;;;;;;;0.20;0.10;;;12.90;99.10;;;11.37;71.48;99850.00;10294886;28;96784;-94
2022/09/19 13:06:21;;;;;;;0.30;0.10;;;13.00;99.20;;;11.52;71.64;99844.72;10276383;28;96558;-95
2022/09/19 13:11:41;;;;;;;0.10;0.10;;;13.10;99.10;;;11.69;70.65;99827.53;10284935;28;96403;-92
2022/09/19 13:27:25;;;;;;;0.83;0.50;;;13.60;98.20;;;12.19;69.60;99819.81;10290636;28;97413;-92
2022/09/19 13:32:52;;;;;;;2.40;0.87;;;13.80;97.70;;;12.21;68.01;99823.91;10290502;28;97812;-94
2022/09/19 13:38:16;;;;;;;0.40;0.20;;;13.80;96.60;;;12.38;68.89;99824.53;10309599;28;96770;-94
2022/09/19 13:43:29;;;;;;;2.80;1.10;;;13.90;96.70;;;12.41;69.83;99832.13;10292865;28;96799;-93
2022/09/19 13:48:50;;;;;;;225.10;61.97;;;14.00;96.30;;;12.41;70.63;99823.31;10290878;28;96840;-95
2022/09/19 13:54:19;;;;;;;3.43;1.20;;;14.10;95.90;;;12.67;70.36;99825.44;10305615;28;98337;-94
2022/09/19 13:59:28;;;;;;;0.77;0.30;;;14.30;95.80;;;12.80;67.46;99830.88;10283205;28;96766;-95
2022/09/19 14:04:57;;;;;;;0.27;0.20;;;14.50;94.40;;;12.68;66.81;99835.91;10288955;28;98410;-93
2022/09/19 14:10:17;;;;;;;1.07;0.57;;;14.40;94.40;;;12.45;67.49;99865.38;10317898;28;96936;-91
2022/09/19 14:15:41;;;;;;;2.00;0.70;;;14.20;95.80;;;11.96;71.17;99884.66;10289721;28;96678;-88
2022/09/19 14:20:59;;;;;;;0.67;0.33;;;13.80;98.10;;;10.99;73.44;99884.59;10287352;28;97024;-86
2022/09/19 14:26:19;;;;;;;0.90;0.43;;;12.90;99.50;;;10.21;76.98;99862.63;10287648;28;97189;-87
2022/09/19 14:31:34;;;;;;;3.37;2.00;;;12.10;99.90;;;9.75;79.61;99868.59;10288898;28;96622;-88
2022/09/19 14:37:04;;;;;;;5.50;2.67;;;11.60;99.90;;;9.56;81.80;99858.38;10289984;28;98209;-88
2022/09/19 14:42:37;;;;;;;3.67;3.20;;;11.40;99.90;;;9.42;83.63;99845.81;10311350;28;97308;-86
2022/09/19 14:47:43;;;;;;;;;;;11.20;99.90;;;9.35;84.94;99859.72;10230846;28;98353;-87
2022/09/19 14:52:59;;;;;;;0.70;0.47;;;11.10;99.90;;;9.35;86.23;99858.91;10309837;28;98255;-86
2022/09/19 14:58:21;;;;;;;1.33;0.83;;;11.10;99.90;;;9.44;87.06;99857.91;10267104;28;97996;-89
2022/09/19 15:03:25;;;;;;;3.87;0.80;;;11.20;99.90;;;9.74;88.39;99861.66;10283495;28;98662;-93
2022/09/19 15:08:30;;;;;;;1.97;1.17;;;11.40;99.90;;;10.12;89.60;99845.91;10280557;28;97816;-90
2022/09/19 15:13:33;;;;;;;1.77;0.87;;;11.70;99.90;;;10.75;89.95;99847.56;10277715;28;96652;-88
2022/09/19 15:18:42;;;;;;;0.30;0.27;;;12.20;99.90;;;11.30;88.83;99842.94;10295904;28;96832;-88
2022/09/19 15:23:47;;;;;;;0.80;0.40;;;12.80;99.90;;;11.74;88.22;99834.97;10309087;28;96683;-92
2022/09/19 15:29:36;;;;;;;1.13;0.43;;;13.20;99.90;;;12.09;86.83;99835.25;10300884;28;96586;-89
2022/09/19 15:34:41;;;;;;;0.70;0.30;;;13.50;99.90;;;12.31;85.40;99827.13;10329777;28;96546;-89
2022/09/19 15:39:43;;;;;;;1.13;0.40;;;13.90;99.90;;;12.44;85.62;99842.41;10295672;28;96659;-90
2022/09/19 15:44:48;;;;;;;0.40;0.30;;;14.00;99.90;;;12.55;83.16;99855.25;10287145;28;96896;-88
2022/09/19 15:50:00;;;;;;;2.20;0.83;;;14.20;99.90;;;12.31;80.87;99860.94;10286842;28;97730;-86
2022/09/19 15:55:05;;;;;;;2.23;1.30;;;14.10;99.90;;;12.01;81.07;99874.28;10271535;28;98336;-87
2022/09/19 16:00:30;;;;;;;3.23;1.67;;;13.70;99.90;;;11.68;81.91;99867.63;10301026;28;96577;-87
2022/09/19 16:05:36;;;;;;;2.47;1.50;;;13.40;99.90;;;11.41;82.46;99871.75;10287447;28;96541;-86
2022/09/19 16:10:43;;;;;;;1.67;0.90;;;13.20;99.90;;;11.18;82.64;99872.63;10277402;28;96719;-86
2022/09/19 16:15:56;;;;;;;0.70;0.43;;;13.00;99.90;;;11.00;83.05;99874.78;10286566;28;97096;-88
2022/09/19 16:21:06;;;;;;;1.03;0.33;;;12.80;99.90;;;10.84;83.01;99869.56;10266790;28;96943;-87
2022/09/19 16:26:12;;;;;;;1.17;0.60;;;12.60;99.90;;;10.70;83.66;99876.47;10272830;28;96527;-87
2022/09/19 16:31:36;;;;;;;2.17;1.00;;;12.50;99.90;;;10.58;84.04;99881.38;10289376;28;96971;-90
2022/09/19 16:36:50;;;;;;;1.43;0.70;;;12.40;99.90;;;10.45;84.40;99873.97;10292332;28;96838;-88
2022/09/19 16:41:53;;;;;;;1.00;0.67;;;12.30;99.90;;;10.36;84.26;99888.28;10291116;28;98680;-88
2022/09/19 16:47:10;;;;;;;1.40;0.70;;;12.20;99.90;;;10.28;83.86;99883.03;10289184;28;96585;-91
2022/09/19 16:52:21;;;;;;;1.30;0.70;;;12.10;99.90;;;10.20;83.83;99898.97;10295761;28;96673;-88
2022/09/19 16:57:24;;;;;;;1.43;0.50;;;12.00;99.90;;;10.18;84.23;99898.31;10310339;28;96656;-86
2022/09/19 17:02:31;;;;;;;1.23;0.50;;;11.90;99.90;;;10.16;84.14;99902.97;10309159;28;96594;-88
2022/09/19 17:07:35;;;;;;;0.83;0.47;;;11.90;99.90;;;10.10;83.82;99908.97;10306547;28;96547;-89
2022/09/19 17:12:38;;;;;;;0.87;0.37;;;11.90;99.90;;;10.11;84.28;99916.75;10298425;28;96443;-88
2022/09/19 17:17:41;;;;;;;1.30;0.53;;;11.90;99.90;;;10.09;84.91;99917.94;10281339;28;96557;-88
2022/09/19 17:22:51;;;;;;;1.07;0.60;;;11.90;99.90;;;10.09;83.82;99918.78;10316684;28;96700;-85
2022/09/19 17:27:53;;;;;;;1.30;0.50;;;11.90;99.90;;;10.10;84.38;99933.69;10303161;28;96639;-91
2022/09/19 17:32:56;;;;;;;1.77;0.70;;;11.90;99.90;;;10.08;84.50;99929.56;10280304;28;97164;-91
2022/09/19 17:38:06;;;;;;;1.07;0.60;;;11.90;99.90;;;10.12;84.71;99944.13;10310492;28;96795;-91
2022/09/19 17:43:15;;;;;;;1.67;0.80;;;11.90;99.90;;;10.13;84.48;99951.91;10308008;28;97135;-92
2022/09/19 17:48:19;;;;;;;1.43;0.70;;;11.90;99.90;;;10.13;84.58;99954.56;10271471;28;96729;-91
2022/09/19 17:53:22;;;;;;;1.37;0.53;;;11.90;99.90;;;10.13;84.61;99957.22;10297252;28;96737;-92
2022/09/19 17:58:25;;;;;;;0.90;0.60;;;11.90;99.90;;;10.10;85.14;99957.59;10275005;28;96758;-90
2022/09/19 18:03:27;;;;;;;1.27;0.70;;;11.90;99.90;;;10.11;85.65;99969.03;10305219;28;96605;-91
2022/09/19 18:08:33;;;;;;;1.77;0.90;;;11.90;99.90;;;10.09;85.82;99966.56;10296048;28;98604;-91
2022/09/19 18:13:36;;;;;;;0.70;0.57;;;11.90;99.90;;;10.09;86.13;99971.88;10292725;28;96497;-92
2022/09/19 18:18:40;;;;;;;0.80;0.40;;;11.90;99.90;;;10.11;85.97;99974.34;10290052;28;96711;-92
2022/09/19 18:23:45;;;;;;;0.83;0.50;;;11.90;99.90;;;10.12;86.41;99984.78;10279413;28;98204;-90
2022/09/19 18:28:54;;;;;;;1.67;0.80;;;11.80;99.90;;;10.09;86.64;99985.16;10296878;28;98231;-90
2022/09/19 18:33:59;;;;;;;1.90;0.70;;;11.80;99.90;;;10.09;87.00;99995.75;10297677;28;97275;-92
2022/09/19 18:39:04;;;;;;;0.80;0.50;;;11.80;99.90;;;10.07;87.36;99999.56;10289305;28;97389;-92
2022/09/19 18:44:07;;;;;;;1.23;0.67;;;11.80;99.90;;;10.04;87.21;99999.91;10277656;28;96620;-93
2022/09/19 18:49:10;;;;;;;1.60;0.77;;;11.80;99.90;;;10.02;87.92;100001.94;10309906;28;96628;-91
2022/09/19 18:54:13;;;;;;;0.73;0.50;;;11.80;99.90;;;10.00;88.33;99998.59;10269934;28;96645;-90
2022/09/19 18:59:23;;;;;;;1.07;0.57;;;11.80;99.90;;;9.98;88.41;100006.72;10303973;28;97608;-90
2022/09/19 19:04:26;;;;;;;1.47;0.80;;;11.70;99.90;;;9.95;88.80;100006.22;10270012;28;97774;-91
2022/09/19 19:09:28;;;;;;;1.33;1.00;;;11.70;99.90;;;9.95;89.17;100011.53;10283905;28;96621;-91
2022/09/19 19:14:32;;;;;;;2.43;1.20;;;11.70;99.90;;;10.00;89.82;100019.84;10285405;28;96641;-91
2022/09/19 19:19:34;;;;;;;1.87;1.43;;;11.70;99.90;;;10.05;90.34;100012.19;10297472;28;97138;-89
2022/09/19 19:24:37;;;;;;;1.87;1.37;;;11.80;99.90;;;10.12;90.86;100023.78;10304959;28;96784;-90
2022/09/19 19:29:40;;;;;;;1.73;1.13;;;11.90;99.90;;;10.18;91.11;100037.22;10301458;28;96517;-90
2022/09/19 19:34:43;;;;;;;2.97;1.50;;;12.00;99.90;;;10.21;91.03;100033.41;10279688;28;96796;-90
2022/09/19 19:39:46;;;;;;;1.53;1.07;;;12.00;99.90;;;10.20;91.48;100037.06;10290666;28;96744;-88
2022/09/19 19:44:48;;;;;;;1.67;0.93;;;12.00;99.90;;;10.14;92.05;100038.56;10279688;28;97788;-88
2022/09/19 19:49:53;;;;;;;1.67;1.13;;;11.90;99.90;;;10.04;92.21;100026.47;10288937;28;96783;-87
2022/09/19 19:54:55;;;;;;;1.30;1.00;;;11.80;99.90;;;10.00;92.58;100036.59;10286955;28;97976;-90
2022/09/19 19:59:58;;;;;;;1.30;0.80;;;11.80;99.90;;;9.96;92.51;100039.75;10272706;28;99329;-91
2022/09/19 20:05:01;;;;;;;1.87;0.93;;;11.70;99.90;;;9.93;92.54;100022.34;10308543;28;98032;-89
2022/09/19 20:10:07;;;;;;;2.20;1.07;;;11.70;99.90;;;9.87;93.07;100026.47;10272522;28;96627;-89
2022/09/19 20:15:11;;;;;;;2.33;1.57;;;11.60;99.90;;;9.82;92.72;100022.66;10287569;28;97117;-88
2022/09/19 20:20:14;;;;;;;2.33;1.30;;;11.60;99.90;;;9.82;93.27;100017.38;10289873;28;96520;-88
2022/09/19 20:25:16;;;;;;;1.80;0.80;;;11.50;99.90;;;9.77;93.23;100015.19;10286975;28;98324;-88
2022/09/19 20:30:22;;;;;;;2.73;0.70;;;11.50;99.90;;;9.71;93.16;100010.56;10279131;28;96790;-87
2022/09/19 20:35:25;;;;;;;1.50;0.80;;;11.50;99.90;;;9.61;92.91;100001.97;10287696;28;96639;-88
2022/09/19 20:40:28;;;;;;;1.13;0.80;;;11.40;99.90;;;9.54;93.18;100003.63;10279001;28;97356;-88
2022/09/19 20:45:31;;;;;;;1.50;0.60;;;11.30;99.90;;;9.48;93.31;100001.63;10275284;28;96916;-88
2022/09/19 20:50:36;;;;;;;1.27;0.90;;;11.20;99.90;;;9.44;93.47;100010.91;10270286;28;97249;-88
2022/09/19 20:55:39;;;;;;;0.97;0.60;;;11.20;99.90;;;9.35;93.47;100007.41;10301151;28;96633;-89
2022/09/19 21:00:42;;;;;;;0.50;0.40;;;11.10;99.90;;;9.26;93.51;100011.06;10268457;28;97497;-90
2022/09/19 21:05:55;;;;;;;0.53;0.30;;;11.00;99.90;;;9.20;93.34;100017.00;10271707;28;96492;-87
2022/09/19 21:11:01;;;;;;;1.10;0.50;;;11.00;99.90;;;9.14;93.73;100026.44;10284661;28;96685;-87
2022/09/19 21:16:17;;;;;;;0.67;0.50;;;10.90;99.90;;;9.11;93.81;100032.88;10260363;28;96600;-88
2022/09/19 21:21:25;;;;;;;1.00;0.50;;;10.90;99.90;;;9.13;93.80;100031.91;10272287;28;98139;-87
2022/09/19 21:26:30;;;;;;;0.70;0.60;;;10.80;99.90;;;9.14;94.25;100026.44;10285351;28;97466;-88
2022/09/19 21:31:35;;;;;;;0.77;0.50;;;10.90;99.90;;;9.19;94.32;100032.09;10276470;28;98167;-88
2022/09/19 21:36:38;;;;;;;0.67;0.53;;;11.00;99.90;;;9.21;94.23;100035.41;10288380;28;98456;-87
2022/09/19 21:41:41;;;;;;;1.87;0.70;;;11.00;99.90;;;9.22;94.54;100030.94;10274954;28;97457;-85
2022/09/19 21:46:43;;;;;;;0.63;0.43;;;11.00;99.90;;;9.21;94.44;100039.88;10277853;28;98252;-86
2022/09/19 21:51:46;;;;;;;0.30;0.30;;;10.90;99.90;;;9.20;95.00;100025.78;10279147;28;97022;-86
2022/09/19 21:56:49;;;;;;;0.40;0.20;;;10.90;99.90;;;9.18;95.44;100011.88;10321529;28;96578;-88